Eizo Maru — JD2944 — position and weather

sailwx.info

Track history (hours):
 
Tides and Currents Weather Stations Pressure Air Temp Water Temp Dewpoint Dewpoint Depression Visibility Wind Speed Wind Dir Waves Ship Positions

Eizo Maru

Last reported at 2015-Jun-22 19:30 UTC. Time now 2015-Jun-30 14:29 UTC.
Position N 35°32' E 139°59'.

Length 80 m; draft 4 m.

Type: Tanker. MMSI: 431000976.

Date/timePositionNaut miles runAvg speedWind from/ knotsBaromVisibWave heightAir tempDewpointWater temp
2015-Jun-22 19:30N 35°32' E 139°59'0 0.0
2015-Jun-22 18:30N 35°32' E 139°59'0 0.0
2015-Jun-22 17:06N 35°32' E 139°59'0 0.0
2015-Jun-22 16:30N 35°32' E 139°59'0 0.0
2015-Jun-22 15:12N 35°32' E 139°59'0 0.1
2015-Jun-22 14:30N 35°32' E 139°59'0 0.0
2015-Jun-22 13:15N 35°32' E 139°59'0 0.0
2015-Jun-22 12:30N 35°32' E 139°59'0 0.0
2015-Jun-22 11:33N 35°32' E 139°59'0 0.0
2015-Jun-22 10:33N 35°32' E 139°59'0 0.0
2015-Jun-22 09:33N 35°32' E 139°59'0 0.0
2015-Jun-22 08:30N 35°32' E 139°59'0 0.0
2015-Jun-22 07:33N 35°32' E 139°59'0 0.0
2015-Jun-22 06:33N 35°32' E 139°59'0 0.1
2015-Jun-22 05:24N 35°32' E 139°59'0 0.0
2015-Jun-22 04:12N 35°32' E 139°59'0 0.0
2015-Jun-22 03:18N 35°32' E 139°59'0 0.0
2015-Jun-22 01:30N 35°32' E 139°59'0 0.0
2015-Jun-21 23:30N 35°32' E 139°59'0 0.0
2015-Jun-21 21:27N 35°32' E 139°59'0 0.0
2015-Jun-21 20:30N 35°32' E 139°59'0 0.0
2015-Jun-21 19:30N 35°32' E 139°59'0 0.0
2015-Jun-21 18:30N 35°32' E 139°59'0 0.0
2015-Jun-21 17:30N 35°32' E 139°59'0 0.0
2015-Jun-21 16:33N 35°32' E 139°59'0 0.0
2015-Jun-21 15:24N 35°32' E 139°59'0 0.0
2015-Jun-21 14:18N 35°32' E 139°59'0 0.0
2015-Jun-21 13:27N 35°32' E 139°59'0 0.0
2015-Jun-21 12:30N 35°32' E 139°59'0 0.1
2015-Jun-21 11:30N 35°32' E 139°59'0 0.0
2015-Jun-21 10:27N 35°32' E 139°59'0 0.0
2015-Jun-21 09:24N 35°32' E 139°59'2 2.2
2015-Jun-21 08:33N 35°31' E 139°57'1313.3
2015-Jun-21 07:33N 35°22' E 139°45'1211.8
2015-Jun-21 06:33N 35°10' E 139°47'1313.2
2015-Jun-21 05:33N 35°00' E 139°36'  
2015-Jun-17 22:34N 35°16' E 140°32'3314.0
2015-Jun-17 20:10N 35°42' E 140°57'3 0.1
2015-Jun-16 11:04N 35°39' E 140°56'5113.7
2015-Jun-16 07:19N 35°02' E 140°12'2312.2
2015-Jun-16 05:25N 34°55' E 139°45'1112.3
2015-Jun-16 04:33N 35°06' E 139°44'1212.1
2015-Jun-16 03:33N 35°18' E 139°45'1110.9
2015-Jun-16 02:33N 35°28' E 139°47'2 1.0
2015-Jun-16 00:10N 35°31' E 139°46'3 4.9
2015-Jun-15 23:33N 35°30' E 139°50'0 0.1
2015-Jun-15 22:27N 35°30' E 139°50'0 0.1
2015-Jun-15 21:33N 35°30' E 139°50'0 0.0
2015-Jun-15 20:33N 35°30' E 139°50'0 0.0
2015-Jun-15 19:27N 35°30' E 139°50'0 0.0
2015-Jun-15 18:33N 35°30' E 139°50'0 0.1
2015-Jun-15 17:33N 35°30' E 139°50'0 0.0
2015-Jun-15 16:33N 35°30' E 139°50'0 0.0
2015-Jun-15 15:33N 35°30' E 139°50'0 0.0
2015-Jun-15 14:33N 35°30' E 139°50'0 0.0
2015-Jun-15 13:33N 35°30' E 139°50'0 0.0
2015-Jun-15 12:33N 35°30' E 139°50'0 0.0
2015-Jun-15 11:30N 35°30' E 139°50'0 0.1
2015-Jun-15 10:33N 35°30' E 139°50'0 0.0
2015-Jun-15 09:33N 35°30' E 139°50'1010.0
2015-Jun-15 08:34N 35°31' E 140°02'0 0.0
2015-Jun-15 07:33N 35°31' E 140°02'0 0.0
2015-Jun-15 06:30N 35°31' E 140°02'0 0.0
2015-Jun-15 05:33N 35°31' E 140°02'0 0.0
2015-Jun-15 04:33N 35°31' E 140°02'1 0.8
2015-Jun-15 03:27N 35°31' E 140°01'0 0.1
2015-Jun-15 02:33N 35°31' E 140°01'0 0.0
2015-Jun-15 01:27N 35°31' E 140°01'0 0.0
2015-Jun-15 00:27N 35°31' E 140°01'0 0.0
2015-Jun-14 23:15N 35°31' E 140°01'0 0.0
2015-Jun-14 22:21N 35°31' E 140°01'0 0.0
2015-Jun-14 21:33N 35°31' E 140°01'0 0.0
2015-Jun-14 20:33N 35°31' E 140°01'0 0.0
2015-Jun-14 19:33N 35°31' E 140°01'0 0.0
2015-Jun-14 17:33N 35°31' E 140°01'0 0.1
2015-Jun-14 16:27N 35°31' E 140°01'0 0.0
2015-Jun-14 15:33N 35°31' E 140°01'0 0.0
2015-Jun-14 14:30N 35°31' E 140°01'0 0.0
2015-Jun-14 13:24N 35°31' E 140°01'0 0.0
2015-Jun-14 12:30N 35°31' E 140°01'0 0.0
2015-Jun-14 11:15N 35°31' E 140°01'0 0.0
2015-Jun-14 10:27N 35°31' E 140°01'0 0.0
2015-Jun-14 09:33N 35°31' E 140°01'0 0.0
2015-Jun-14 08:27N 35°31' E 140°01'0 0.0
2015-Jun-14 07:30N 35°31' E 140°01'0 0.0
2015-Jun-14 06:33N 35°31' E 140°01'0 0.0
2015-Jun-14 05:33N 35°31' E 140°01'0 0.0
2015-Jun-14 04:27N 35°31' E 140°01'5 6.0
2015-Jun-14 03:33N 35°30' E 139°55'1312.8
2015-Jun-14 02:33N 35°20' E 139°44'1212.0
2015-Jun-14 01:34N 35°08' E 139°46'1313.2
2015-Jun-14 00:32N 34°59' E 139°34'23411.6
2015-Jun-13 04:24N 33°60' E 134°59'1214.0
2015-Jun-13 03:33N 34°12' E 134°59'1413.7
2015-Jun-13 02:32N 34°24' E 135°05'1414.0
2015-Jun-13 01:33N 34°32' E 135°19'5 1.3
2015-Jun-12 21:32N 34°33' E 135°26'  
Track history (hours):
 
Tides and Currents Weather Stations Pressure Air Temp Water Temp Dewpoint Dewpoint Depression Visibility Wind Speed Wind Dir Waves Ship Positions

Eizo Maru

Last reported at 2015-Jun-22 19:30 UTC. Time now 2015-Jun-30 14:29 UTC.
Position N 35°32' E 139°59'.

Length 80 m; draft 4 m.

Type: Tanker. MMSI: 431000976.

Date/timePositionNaut miles runAvg speedWind from/ knotsBaromVisibWave heightAir tempDewpointWater temp
2015-Jun-22 19:30N 35°32' E 139°59'0 0.0
2015-Jun-22 18:30N 35°32' E 139°59'0 0.0
2015-Jun-22 17:06N 35°32' E 139°59'0 0.0
2015-Jun-22 16:30N 35°32' E 139°59'0 0.0
2015-Jun-22 15:12N 35°32' E 139°59'0 0.1
2015-Jun-22 14:30N 35°32' E 139°59'0 0.0
2015-Jun-22 13:15N 35°32' E 139°59'0 0.0
2015-Jun-22 12:30N 35°32' E 139°59'0 0.0
2015-Jun-22 11:33N 35°32' E 139°59'0 0.0
2015-Jun-22 10:33N 35°32' E 139°59'0 0.0
2015-Jun-22 09:33N 35°32' E 139°59'0 0.0
2015-Jun-22 08:30N 35°32' E 139°59'0 0.0
2015-Jun-22 07:33N 35°32' E 139°59'0 0.0
2015-Jun-22 06:33N 35°32' E 139°59'0 0.1
2015-Jun-22 05:24N 35°32' E 139°59'0 0.0
2015-Jun-22 04:12N 35°32' E 139°59'0 0.0
2015-Jun-22 03:18N 35°32' E 139°59'0 0.0
2015-Jun-22 01:30N 35°32' E 139°59'0 0.0
2015-Jun-21 23:30N 35°32' E 139°59'0 0.0
2015-Jun-21 21:27N 35°32' E 139°59'0 0.0
2015-Jun-21 20:30N 35°32' E 139°59'0 0.0
2015-Jun-21 19:30N 35°32' E 139°59'0 0.0
2015-Jun-21 18:30N 35°32' E 139°59'0 0.0
2015-Jun-21 17:30N 35°32' E 139°59'0 0.0
2015-Jun-21 16:33N 35°32' E 139°59'0 0.0
2015-Jun-21 15:24N 35°32' E 139°59'0 0.0
2015-Jun-21 14:18N 35°32' E 139°59'0 0.0
2015-Jun-21 13:27N 35°32' E 139°59'0 0.0
2015-Jun-21 12:30N 35°32' E 139°59'0 0.1
2015-Jun-21 11:30N 35°32' E 139°59'0 0.0
2015-Jun-21 10:27N 35°32' E 139°59'0 0.0
2015-Jun-21 09:24N 35°32' E 139°59'2 2.2
2015-Jun-21 08:33N 35°31' E 139°57'1313.3
2015-Jun-21 07:33N 35°22' E 139°45'1211.8
2015-Jun-21 06:33N 35°10' E 139°47'1313.2
2015-Jun-21 05:33N 35°00' E 139°36'  
2015-Jun-17 22:34N 35°16' E 140°32'3314.0
2015-Jun-17 20:10N 35°42' E 140°57'3 0.1
2015-Jun-16 11:04N 35°39' E 140°56'5113.7
2015-Jun-16 07:19N 35°02' E 140°12'2312.2
2015-Jun-16 05:25N 34°55' E 139°45'1112.3
2015-Jun-16 04:33N 35°06' E 139°44'1212.1
2015-Jun-16 03:33N 35°18' E 139°45'1110.9
2015-Jun-16 02:33N 35°28' E 139°47'2 1.0
2015-Jun-16 00:10N 35°31' E 139°46'3 4.9
2015-Jun-15 23:33N 35°30' E 139°50'0 0.1
2015-Jun-15 22:27N 35°30' E 139°50'0 0.1
2015-Jun-15 21:33N 35°30' E 139°50'0 0.0
2015-Jun-15 20:33N 35°30' E 139°50'0 0.0
2015-Jun-15 19:27N 35°30' E 139°50'0 0.0
2015-Jun-15 18:33N 35°30' E 139°50'0 0.1
2015-Jun-15 17:33N 35°30' E 139°50'0 0.0
2015-Jun-15 16:33N 35°30' E 139°50'0 0.0
2015-Jun-15 15:33N 35°30' E 139°50'0 0.0
2015-Jun-15 14:33N 35°30' E 139°50'0 0.0
2015-Jun-15 13:33N 35°30' E 139°50'0 0.0
2015-Jun-15 12:33N 35°30' E 139°50'0 0.0
2015-Jun-15 11:30N 35°30' E 139°50'0 0.1
2015-Jun-15 10:33N 35°30' E 139°50'0 0.0
2015-Jun-15 09:33N 35°30' E 139°50'1010.0
2015-Jun-15 08:34N 35°31' E 140°02'0 0.0
2015-Jun-15 07:33N 35°31' E 140°02'0 0.0
2015-Jun-15 06:30N 35°31' E 140°02'0 0.0
2015-Jun-15 05:33N 35°31' E 140°02'0 0.0
2015-Jun-15 04:33N 35°31' E 140°02'1 0.8
2015-Jun-15 03:27N 35°31' E 140°01'0 0.1
2015-Jun-15 02:33N 35°31' E 140°01'0 0.0
2015-Jun-15 01:27N 35°31' E 140°01'0 0.0
2015-Jun-15 00:27N 35°31' E 140°01'0 0.0
2015-Jun-14 23:15N 35°31' E 140°01'0 0.0
2015-Jun-14 22:21N 35°31' E 140°01'0 0.0
2015-Jun-14 21:33N 35°31' E 140°01'0 0.0
2015-Jun-14 20:33N 35°31' E 140°01'0 0.0
2015-Jun-14 19:33N 35°31' E 140°01'0 0.0
2015-Jun-14 17:33N 35°31' E 140°01'0 0.1
2015-Jun-14 16:27N 35°31' E 140°01'0 0.0
2015-Jun-14 15:33N 35°31' E 140°01'0 0.0
2015-Jun-14 14:30N 35°31' E 140°01'0 0.0
2015-Jun-14 13:24N 35°31' E 140°01'0 0.0
2015-Jun-14 12:30N 35°31' E 140°01'0 0.0
2015-Jun-14 11:15N 35°31' E 140°01'0 0.0
2015-Jun-14 10:27N 35°31' E 140°01'0 0.0
2015-Jun-14 09:33N 35°31' E 140°01'0 0.0
2015-Jun-14 08:27N 35°31' E 140°01'0 0.0
2015-Jun-14 07:30N 35°31' E 140°01'0 0.0
2015-Jun-14 06:33N 35°31' E 140°01'0 0.0
2015-Jun-14 05:33N 35°31' E 140°01'0 0.0
2015-Jun-14 04:27N 35°31' E 140°01'5 6.0
2015-Jun-14 03:33N 35°30' E 139°55'1312.8
2015-Jun-14 02:33N 35°20' E 139°44'1212.0
2015-Jun-14 01:34N 35°08' E 139°46'1313.2
2015-Jun-14 00:32N 34°59' E 139°34'23411.6
2015-Jun-13 04:24N 33°60' E 134°59'1214.0
2015-Jun-13 03:33N 34°12' E 134°59'1413.7
2015-Jun-13 02:32N 34°24' E 135°05'1414.0
2015-Jun-13 01:33N 34°32' E 135°19'5 1.3
2015-Jun-12 21:32N 34°33' E 135°26'  

Dump ship's entire track history